Time;durP1;ratioP1;P1;durP2;ratioP2;P2;SDS_P1;SDS_P2;PMS_P1;PMS_P2;Temp;Humidity;BMP_temperature;BMP_pressure;BME280_temperature;BME280_humidity;BME280_pressure;Samples;Min_cycle;Max_cycle;Signal;HPM_P1;HPM_P2
2022/06/07 00:00:25;;;;;;;;;;;;;;;14.66;54.21;100799.27;1674545;85;20206;-66
2022/06/07 00:03:29;;;;;;;;;;;;;;;14.59;54.28;100798.82;1693297;84;20190;-66
2022/06/07 00:06:34;;;;;;;;;;;;;;;14.50;54.34;100799.98;1693199;85;20238;-65
2022/06/07 00:09:38;;;;;;;;;;;;;;;14.42;54.44;100796.81;1693105;83;20546;-65
2022/06/07 00:12:41;;;;;;;;;;;;;;;14.37;54.56;100796.52;1692735;85;20574;-66
2022/06/07 00:15:47;;;;;;;;;;;;;;;14.36;54.86;100795.33;1693051;83;20190;-67
2022/06/07 00:18:53;;;;;;;;;;;;;;;14.37;55.12;100791.01;1676085;83;20221;-67
2022/06/07 00:21:57;;;;;;;;;;;;;;;14.36;55.22;100789.83;1693112;85;20253;-66
2022/06/07 00:25:03;;;;;;;;;;;;;;;14.32;55.30;100787.96;1692964;83;20203;-66
2022/06/07 00:28:09;;;;;;;;;;;;;;;14.29;55.40;100788.86;1693103;85;20198;-66
2022/06/07 00:31:14;;;;;;;;;;;;;;;14.24;55.42;100796.83;1692965;85;20206;-66
2022/06/07 00:34:20;;;;;;;;;;;;;;;14.21;55.67;100787.03;1693133;83;20234;-66
2022/06/07 00:37:25;;;;;;;;;;;;;;;14.18;55.86;100785.17;1668629;85;20262;-66
2022/06/07 00:40:29;;;;;;;;;;;;;;;14.17;56.04;100782.95;1693162;84;20202;-66
2022/06/07 00:43:33;;;;;;;;;;;;;;;14.13;55.98;100783.53;1693081;85;20254;-65
2022/06/07 00:46:39;;;;;;;;;;;;;;;14.05;56.00;100781.70;1693075;84;20539;-65
2022/06/07 00:49:51;;;;;;;;;;;;;;;14.02;56.12;100785.34;1693059;84;20213;-66
2022/06/07 00:52:56;;;;;;;;;;;;;;;13.97;56.20;100787.28;1693154;85;20202;-67
2022/06/07 00:56:02;;;;;;;;;;;;;;;13.93;56.26;100790.61;1692820;84;20238;-66
2022/06/07 00:59:05;;;;;;;;;;;;;;;13.88;56.37;100790.31;1693103;83;20198;-66
2022/06/07 01:02:13;;;;;;;;;;;;;;;13.85;56.52;100797.05;1693110;85;20206;-65
2022/06/07 01:05:17;;;;;;;;;;;;;;;13.85;56.74;100787.94;1674385;85;20206;-66
2022/06/07 01:11:46;;;;;;;;;;;;;;;13.86;57.02;100792.42;1693124;84;20246;-66
2022/06/07 01:14:52;;;;;;;;;;;;;;;13.85;57.10;100785.18;1693076;84;20218;-66
2022/06/07 01:17:58;;;;;;;;;;;;;;;13.82;57.13;100793.30;1693035;85;20575;-66
2022/06/07 01:21:25;;;;;;;;;;;;;;;13.79;57.16;100788.69;1692852;83;20230;-65
2022/06/07 01:24:31;;;;;;;;;;;;;;;13.75;57.25;100786.82;1693116;83;20265;-66
2022/06/07 01:27:36;;;;;;;;;;;;;;;13.72;57.37;100791.84;1693071;84;20230;-65
2022/06/07 01:30:41;;;;;;;;;;;;;;;13.68;57.41;100787.25;1675779;85;20547;-65
2022/06/07 01:33:46;;;;;;;;;;;;;;;13.66;57.49;100789.83;1693123;83;20535;-65
2022/06/07 01:36:52;;;;;;;;;;;;;;;13.64;57.54;100790.56;1693087;85;20221;-66
2022/06/07 01:43:21;;;;;;;;;;;;;;;13.60;57.77;100791.95;1693095;84;20234;-67
2022/06/07 01:46:27;;;;;;;;;;;;;;;13.61;57.94;100796.41;1692938;85;20254;-67
2022/06/07 01:49:34;;;;;;;;;;;;;;;13.60;58.08;100788.70;1688219;83;20191;-67
2022/06/07 01:52:39;;;;;;;;;;;;;;;13.62;58.25;100796.22;1651498;87;20560;-66
2022/06/07 01:55:46;;;;;;;;;;;;;;;13.63;58.37;100792.96;1644780;87;20186;-66
2022/06/07 01:58:51;;;;;;;;;;;;;;;13.62;58.45;100800.34;1644853;87;20234;-66
2022/06/07 02:01:56;;;;;;;;;;;;;;;13.62;58.49;100805.02;1644725;87;20213;-66
2022/06/07 02:05:01;;;;;;;;;;;;;;;13.58;58.42;100797.64;1644841;87;20265;-66
2022/06/07 02:08:08;;;;;;;;;;;;;;;13.56;58.36;100801.64;1644724;87;20197;-66
2022/06/07 02:11:15;;;;;;;;;;;;;;;13.52;58.35;100801.98;1644842;87;20348;-65
2022/06/07 02:14:23;;;;;;;;;;;;;;;13.51;58.41;100811.79;1644734;87;20222;-67
2022/06/07 02:17:27;;;;;;;;;;;;;;;13.51;58.47;100809.91;1644738;87;20234;-64
2022/06/07 02:20:43;;;;;;;;;;;;;;;13.53;58.65;100806.45;1644845;87;20570;-66
2022/06/07 02:23:50;;;;;;;;;;;;;;;13.57;58.93;100804.20;1644867;87;20197;-66
2022/06/07 02:27:01;;;;;;;;;;;;;;;13.67;59.17;100806.16;1644856;87;20277;-63
2022/06/07 02:30:07;;;;;;;;;;;;;;;13.77;59.31;100807.27;1644816;87;20194;-67
2022/06/07 02:33:12;;;;;;;;;;;;;;;13.85;59.37;100805.82;1644835;87;20214;-68
2022/06/07 02:36:18;;;;;;;;;;;;;;;13.88;59.39;100799.43;1644841;87;20202;-65
2022/06/07 02:39:24;;;;;;;;;;;;;;;13.95;59.41;100809.17;1644835;87;20546;-66
2022/06/07 02:42:32;;;;;;;;;;;;;;;14.00;59.46;100811.69;1644867;87;20249;-66
2022/06/07 02:45:38;;;;;;;;;;;;;;;14.09;59.54;100809.20;1644898;87;20253;-66
2022/06/07 02:48:42;;;;;;;;;;;;;;;14.19;59.63;100810.30;1644821;87;20205;-64
2022/06/07 02:51:47;;;;;;;;;;;;;;;14.29;59.70;100812.27;1664415;86;20259;-66
2022/06/07 02:54:56;;;;;;;;;;;;;;;14.37;59.65;100813.55;1651853;86;20201;-65
2022/06/07 02:58:00;;;;;;;;;;;;;;;14.44;59.61;100807.63;1672839;86;20508;-66
2022/06/07 03:01:06;;;;;;;;;;;;;;;14.50;59.61;100813.75;1680377;85;20586;-64
2022/06/07 03:04:13;;;;;;;;;;;;;;;14.57;59.64;100814.71;1680788;84;20555;-65
2022/06/07 03:07:19;;;;;;;;;;;;;;;14.66;59.70;100817.17;1680834;85;20559;-66
2022/06/07 03:10:27;;;;;;;;;;;;;;;14.73;59.74;100820.86;1680846;85;20571;-66
2022/06/07 03:13:33;;;;;;;;;;;;;;;14.82;59.78;100817.48;1681189;85;20579;-66
2022/06/07 03:16:42;;;;;;;;;;;;;;;14.90;59.81;100811.86;1680789;85;20187;-61
2022/06/07 03:19:47;;;;;;;;;;;;;;;15.04;59.92;100809.59;1680945;85;20210;-60
2022/06/07 03:22:53;;;;;;;;;;;;;;;15.19;60.02;100820.59;1679997;85;20555;-63
2022/06/07 03:25:58;;;;;;;;;;;;;;;15.34;60.04;100821.38;1680750;85;20575;-62
2022/06/07 03:29:06;;;;;;;;;;;;;;;15.47;60.07;100819.66;1680453;85;20207;-63
2022/06/07 03:32:05;;;;;;;;;;;;;;;15.61;60.04;100818.73;1670879;85;20246;-64
2022/06/07 03:35:12;;;;;;;;;;;;;;;15.70;59.96;100820.30;1628100;87;20207;-65
2022/06/07 03:38:18;;;;;;;;;;;;;;;15.79;59.92;100823.23;1624437;88;20225;-63
2022/06/07 03:41:28;;;;;;;;;;;;;;;15.88;59.92;100828.10;1624771;86;20222;-64
2022/06/07 03:44:40;;;;;;;;;;;;;;;15.97;60.00;100829.14;1626890;86;20656;-65
2022/06/07 03:47:47;;;;;;;;;;;;;;;16.09;60.02;100823.93;1625836;87;20570;-64
2022/06/07 03:50:53;;;;;;;;;;;;;;;16.20;60.05;100829.77;1627456;85;20301;-63
2022/06/07 03:53:57;;;;;;;;;;;;;;;16.31;59.99;100822.81;1631581;87;20207;-63
2022/06/07 03:57:05;;;;;;;;;;;;;;;16.41;59.96;100824.70;1643828;86;20257;-63
2022/06/07 04:00:12;;;;;;;;;;;;;;;16.53;59.98;100825.00;1625948;88;20263;-64
2022/06/07 04:03:17;;;;;;;;;;;;;;;16.65;60.03;100824.77;1625961;88;20227;-63
2022/06/07 04:06:31;;;;;;;;;;;;;;;16.78;60.00;100821.53;1624541;88;20227;-64
2022/06/07 04:09:40;;;;;;;;;;;;;;;16.91;59.97;100813.82;1630756;88;20573;-64
2022/06/07 04:12:48;;;;;;;;;;;;;;;17.03;59.96;100813.57;1632761;86;20562;-66
2022/06/07 04:15:57;;;;;;;;;;;;;;;17.17;59.95;100812.55;1630994;88;20240;-65
2022/06/07 04:19:04;;;;;;;;;;;;;;;17.29;59.95;100817.27;1631996;86;20210;-64
2022/06/07 04:22:11;;;;;;;;;;;;;;;17.44;59.93;100822.63;1633834;86;20610;-65
2022/06/07 04:25:19;;;;;;;;;;;;;;;17.57;59.91;100818.52;1631017;87;20372;-63
2022/06/07 04:28:23;;;;;;;;;;;;;;;17.70;59.90;100819.92;1626035;88;20236;-65
2022/06/07 04:31:18;;;;;;;;;;;;;;;17.84;59.86;100817.48;1626430;88;20195;-64
2022/06/07 04:34:29;;;;;;;;;;;;;;;17.96;59.83;100825.50;1626446;88;20522;-64
2022/06/07 04:37:35;;;;;;;;;;;;;;;18.09;59.80;100826.89;1630930;88;20562;-63
2022/06/07 04:40:40;;;;;;;;;;;;;;;18.23;59.80;100827.20;1632110;88;20192;-64
2022/06/07 04:43:46;;;;;;;;;;;;;;;18.38;59.81;100815.88;1623873;88;20202;-65
2022/06/07 04:46:53;;;;;;;;;;;;;;;18.51;59.79;100815.34;1624227;88;20572;-65
2022/06/07 04:49:57;;;;;;;;;;;;;;;18.63;59.76;100820.52;1626794;86;20731;-63
2022/06/07 04:53:02;;;;;;;;;;;;;;;18.80;59.74;100823.69;1650779;81;20475;-62
2022/06/07 04:56:09;;;;;;;;;;;;;;;18.92;59.71;100815.85;1666349;84;20225;-61
2022/06/07 04:59:16;;;;;;;;;;;;;;;19.08;59.72;100822.30;1646833;86;20225;-59
2022/06/07 05:02:23;;;;;;;;;;;;;;;19.25;59.68;100823.49;1659503;84;20562;-60
2022/06/07 05:05:34;;;;;;;;;;;;;;;19.38;59.63;100818.43;1646834;85;20209;-61
2022/06/07 05:08:43;;;;;;;;;;;;;;;19.50;59.51;100821.36;1647304;86;20239;-61
2022/06/07 05:11:51;;;;;;;;;;;;;;;19.62;59.41;100821.81;1653227;85;20264;-60
2022/06/07 05:14:59;;;;;;;;;;;;;;;19.76;59.33;100822.56;1648321;87;20221;-60
2022/06/07 05:18:07;;;;;;;;;;;;;;;19.87;59.26;100815.75;1624392;88;20259;-64
2022/06/07 05:21:16;;;;;;;;;;;;;;;19.99;59.15;100815.88;1644485;87;20234;-61
2022/06/07 05:24:25;;;;;;;;;;;;;;;20.13;59.07;100816.08;1623508;88;20251;-61
2022/06/07 05:27:31;;;;;;;;;;;;;;;20.26;58.97;100821.55;1643459;87;20237;-59
2022/06/07 05:30:39;;;;;;;;;;;;;;;20.40;58.92;100819.81;1634939;87;20217;-60
2022/06/07 05:33:47;;;;;;;;;;;;;;;20.54;58.85;100833.89;1625677;87;20238;-60
2022/06/07 05:36:57;;;;;;;;;;;;;;;20.65;58.69;100821.14;1655032;86;20505;-60
2022/06/07 05:40:03;;;;;;;;;;;;;;;20.78;58.54;100822.40;1654459;86;20244;-58
2022/06/07 05:43:10;;;;;;;;;;;;;;;20.90;58.47;100816.36;1657598;86;20256;-59
2022/06/07 05:46:17;;;;;;;;;;;;;;;21.04;58.36;100822.09;1673098;86;20207;-60
2022/06/07 05:49:24;;;;;;;;;;;;;;;21.15;58.21;100822.73;1673023;86;20219;-60
2022/06/07 05:52:36;;;;;;;;;;;;;;;21.27;58.08;100816.67;1652245;83;20558;-60
2022/06/07 05:55:41;;;;;;;;;;;;;;;21.36;57.88;100818.60;1682228;85;20302;-60
2022/06/07 05:58:48;;;;;;;;;;;;;;;21.45;57.70;100819.97;1690998;83;20210;-59
2022/06/07 06:01:53;;;;;;;;;;;;;;;21.56;57.56;100821.94;1663481;86;20221;-59
2022/06/07 06:05:04;;;;;;;;;;;;;;;21.64;57.46;100821.08;1663347;85;20215;-60
2022/06/07 06:11:35;;;;;;;;;;;;;;;21.84;57.19;100814.68;1684747;83;20218;-59
2022/06/07 06:14:43;;;;;;;;;;;;;;;21.95;57.03;100813.85;1690482;83;20513;-60
2022/06/07 06:17:52;;;;;;;;;;;;;;;22.04;56.89;100815.20;1691427;85;20218;-60
2022/06/07 06:21:00;;;;;;;;;;;;;;;22.11;56.73;100815.09;1691122;83;20214;-60
2022/06/07 06:24:09;;;;;;;;;;;;;;;22.17;56.51;100819.16;1691721;83;20225;-59
2022/06/07 06:27:15;;;;;;;;;;;;;;;22.25;56.33;100813.77;1691853;85;20218;-58
2022/06/07 06:30:24;;;;;;;;;;;;;;;22.36;56.27;100813.48;1692187;83;20254;-60
2022/06/07 06:33:37;;;;;;;;;;;;;;;22.43;56.06;100813.66;1692223;85;20459;-60
2022/06/07 06:36:53;;;;;;;;;;;;;;;22.41;55.78;100814.44;1692823;85;20586;-54
2022/06/07 06:40:35;;;;;;;;;;;;;;;22.44;55.62;100824.29;1683340;85;20581;-60
2022/06/07 06:43:43;;;;;;;;;;;;;;;22.50;55.34;100814.94;1693667;85;20218;-60
2022/06/07 06:46:53;;;;;;;;;;;;;;;22.54;55.16;100817.03;1694094;85;20218;-61
2022/06/07 06:49:58;;;;;;;;;;;;;;;22.54;54.96;100806.41;1704616;83;20215;-59
2022/06/07 06:53:03;;;;;;;;;;;;;;;22.59;54.79;100808.78;1728554;83;20224;-60
2022/06/07 06:56:11;;;;;;;;;;;;;;;22.66;54.65;100799.72;1729284;83;20251;-60
2022/06/07 06:59:18;;;;;;;;;;;;;;;22.77;54.57;100798.84;1707197;82;20565;-60
2022/06/07 07:02:25;;;;;;;;;;;;;;;22.87;54.38;100796.29;1729384;83;20204;-60
2022/06/07 07:05:36;;;;;;;;;;;;;;;23.02;54.18;100795.23;1708505;82;20605;-59
2022/06/07 07:08:45;;;;;;;;;;;;;;;23.17;54.01;100798.34;1695604;83;20217;-59
2022/06/07 07:11:52;;;;;;;;;;;;;;;23.32;53.85;100790.84;1680490;85;20269;-59
2022/06/07 07:14:59;;;;;;;;;;;;;;;23.45;53.72;100794.18;1691245;84;20478;-57
2022/06/07 07:18:10;;;;;;;;;;;;;;;23.57;53.54;100792.73;1664476;86;20228;-59
2022/06/07 07:21:22;;;;;;;;;;;;;;;23.70;53.27;100795.23;1691120;85;20262;-60
2022/06/07 07:24:32;;;;;;;;;;;;;;;23.78;52.97;100796.22;1691895;84;20204;-59
2022/06/07 07:27:41;;;;;;;;;;;;;;;23.79;52.69;100797.04;1704680;84;20252;-60
2022/06/07 07:30:47;;;;;;;;;;;;;;;23.66;52.38;100798.21;1705506;84;20194;-58
2022/06/07 07:33:54;;;;;;;;;;;;;;;23.56;52.30;100800.84;1704596;84;20244;-59
2022/06/07 07:37:07;;;;;;;;;;;;;;;23.52;52.18;100795.43;1670559;86;20251;-60
2022/06/07 07:40:30;;;;;;;;;;;;;;;23.47;52.00;100796.72;1645749;85;20276;-60
2022/06/07 07:43:38;;;;;;;;;;;;;;;23.54;51.88;100794.64;1685013;85;20266;-60
2022/06/07 07:46:47;;;;;;;;;;;;;;;23.64;51.79;100787.28;1643307;87;20565;-60
2022/06/07 07:49:54;;;;;;;;;;;;;;;23.75;51.59;100793.07;1684734;84;20213;-61
2022/06/07 07:53:01;;;;;;;;;;;;;;;23.83;51.44;100799.11;1703737;84;20244;-59
2022/06/07 07:56:07;;;;;;;;;;;;;;;23.82;51.24;100798.79;1704326;84;20569;-59
2022/06/07 07:59:14;;;;;;;;;;;;;;;23.85;51.05;100803.88;1704004;84;20312;-59
2022/06/07 08:02:27;;;;;;;;;;;;;;;23.92;50.94;100802.32;1704506;84;20217;-59
2022/06/07 08:05:34;;;;;;;;;;;;;;;23.99;50.78;100794.09;1704430;84;20265;-58
2022/06/07 08:08:40;;;;;;;;;;;;;;;24.08;50.60;100795.92;1706977;83;20202;-60
2022/06/07 08:11:50;;;;;;;;;;;;;;;24.16;50.47;100798.30;1723279;81;20223;-59
2022/06/07 08:14:54;;;;;;;;;;;;;;;24.22;50.34;100792.54;1726170;82;20606;-58
2022/06/07 08:18:02;;;;;;;;;;;;;;;24.28;50.13;100789.26;1677518;85;20485;-60
2022/06/07 08:21:09;;;;;;;;;;;;;;;24.29;49.97;100790.97;1676697;83;20295;-60
2022/06/07 08:24:13;;;;;;;;;;;;;;;24.32;49.73;100792.72;1734953;80;20555;-62
2022/06/07 08:27:20;;;;;;;;;;;;;;;24.30;49.60;100787.91;1782603;80;20219;-60
2022/06/07 08:30:20;;;;;;;;;;;;;;;24.26;49.46;100795.69;1739350;80;20242;-60
2022/06/07 08:39:33;;;;;;;;;;;;;;;24.58;49.21;100777.13;1745969;82;20686;-57
2022/06/07 08:42:26;;;;;;;;;;;;;;;24.68;48.97;100780.97;1745847;82;20210;-60
2022/06/07 08:45:26;;;;;;;;;;;;;;;24.73;48.79;100777.39;1741956;82;20549;-61
2022/06/07 08:48:35;;;;;;;;;;;;;;;24.79;48.66;100770.20;1712192;83;20497;-61
2022/06/07 08:51:55;;;;;;;;;;;;;;;24.92;48.53;100771.23;1711567;82;20210;-60
2022/06/07 08:55:01;;;;;;;;;;;;;;;24.95;48.25;100759.50;1683583;85;20276;-58
2022/06/07 08:58:11;;;;;;;;;;;;;;;25.03;48.26;100752.04;1680336;85;20570;-60
2022/06/07 09:01:42;;;;;;;;;;;;;;;25.17;48.20;100754.41;1680921;85;20262;-60
2022/06/07 09:04:47;;;;;;;;;;;;;;;25.35;48.09;100761.12;1679863;85;20602;-61
2022/06/07 09:07:53;;;;;;;;;;;;;;;25.47;47.79;100756.19;1684595;83;20642;-64
2022/06/07 09:14:17;;;;;;;;;;;;;;;25.34;47.41;100753.83;1659576;83;20216;-65
2022/06/07 09:17:27;;;;;;;;;;;;;;;25.32;47.25;100757.41;1680559;85;20221;-67
2022/06/07 09:20:37;;;;;;;;;;;;;;;25.28;47.20;100747.81;1660758;86;20272;-67
2022/06/07 09:23:44;;;;;;;;;;;;;;;25.38;47.31;100750.78;1724372;83;20519;-66
2022/06/07 09:26:50;;;;;;;;;;;;;;;25.54;47.28;100742.27;1685262;85;20219;-62
2022/06/07 09:30:03;;;;;;;;;;;;;;;25.70;47.20;100746.92;1685045;85;20216;-63
2022/06/07 09:33:17;;;;;;;;;;;;;;;25.83;47.12;100741.43;1685545;85;20224;-63
2022/06/07 09:36:30;;;;;;;;;;;;;;;25.97;46.97;100739.28;1690194;82;20228;-65
2022/06/07 09:39:46;;;;;;;;;;;;;;;26.09;46.73;100732.98;1686030;85;20216;-61
2022/06/07 09:42:51;;;;;;;;;;;;;;;26.23;46.52;100737.01;1690892;82;20254;-64
2022/06/07 09:46:07;;;;;;;;;;;;;;;26.39;46.47;100735.14;1677321;83;20206;-63
2022/06/07 09:49:13;;;;;;;;;;;;;;;26.55;46.19;100736.94;1690521;82;20548;-63
2022/06/07 09:52:25;;;;;;;;;;;;;;;26.65;45.91;100736.19;1710602;84;20211;-61
2022/06/07 09:55:37;;;;;;;;;;;;;;;26.74;45.72;100733.98;1709068;84;20231;-62
2022/06/07 09:58:47;;;;;;;;;;;;;;;26.62;45.47;100733.89;1699575;84;20249;-62
2022/06/07 10:02:00;;;;;;;;;;;;;;;26.39;45.34;100727.58;1723928;81;20261;-61
2022/06/07 10:05:27;;;;;;;;;;;;;;;26.43;45.34;100722.27;1699202;83;20200;-62
2022/06/07 10:08:46;;;;;;;;;;;;;;;26.57;45.26;100723.48;1717837;82;20246;-62
2022/06/07 10:11:57;;;;;;;;;;;;;;;26.65;45.04;100718.78;1720904;82;20197;-62
2022/06/07 10:15:30;;;;;;;;;;;;;;;26.74;44.92;100719.94;1743014;81;20515;-57
2022/06/07 10:18:48;;;;;;;;;;;;;;;26.91;44.82;100722.55;1739374;81;20213;-57
2022/06/07 10:22:18;;;;;;;;;;;;;;;27.09;44.60;100717.28;1729959;81;20555;-58
2022/06/07 10:25:57;;;;;;;;;;;;;;;27.04;44.26;100718.66;1751539;80;20290;-59
2022/06/07 10:29:23;;;;;;;;;;;;;;;26.85;44.11;100713.24;1739596;80;20632;-58
2022/06/07 10:32:42;;;;;;;;;;;;;;;26.74;44.01;100719.08;1740673;81;20209;-59
2022/06/07 10:35:57;;;;;;;;;;;;;;;26.68;43.88;100714.02;1710314;82;20250;-58
2022/06/07 10:39:06;;;;;;;;;;;;;;;26.78;43.86;100710.41;1671331;84;20642;-58
2022/06/07 10:42:44;;;;;;;;;;;;;;;27.02;43.81;100703.20;1697119;82;20663;-57
2022/06/07 10:45:49;;;;;;;;;;;;;;;27.26;43.70;100700.16;1738248;81;20203;-61
2022/06/07 10:49:04;;;;;;;;;;;;;;;27.49;43.53;100697.73;1754483;81;20598;-59
2022/06/07 10:52:29;;;;;;;;;;;;;;;27.72;43.54;100692.95;1722074;81;20205;-58
2022/06/07 10:55:45;;;;;;;;;;;;;;;27.97;43.36;100694.12;1700042;84;20228;-57
2022/06/07 10:58:55;;;;;;;;;;;;;;;28.20;43.25;100689.30;1745220;82;20221;-58
2022/06/07 11:02:11;;;;;;;;;;;;;;;28.41;43.12;100690.39;1704620;82;20456;-57
2022/06/07 11:12:20;;;;;;;;;;;;;;;28.60;42.37;100666.69;1736863;81;20220;-57
2022/06/07 11:15:34;;;;;;;;;;;;;;;28.76;42.20;100671.14;1696798;82;20216;-59
2022/06/07 11:18:41;;;;;;;;;;;;;;;28.86;42.03;100674.74;1730681;81;20239;-59
2022/06/07 11:21:50;;;;;;;;;;;;;;;28.95;41.92;100669.36;1689861;82;20210;-59
2022/06/07 11:25:04;;;;;;;;;;;;;;;29.04;41.79;100667.61;1736087;81;20206;-61
2022/06/07 11:28:15;;;;;;;;;;;;;;;29.14;41.60;100661.37;1717036;81;20213;-60
2022/06/07 11:31:32;;;;;;;;;;;;;;;29.24;41.49;100664.13;1703565;82;20576;-58
2022/06/07 11:34:41;;;;;;;;;;;;;;;29.32;41.39;100661.84;1708944;83;20246;-57
2022/06/07 11:37:49;;;;;;;;;;;;;;;29.42;41.28;100665.98;1687221;84;20220;-59
2022/06/07 11:41:36;;;;;;;;;;;;;;;29.41;41.17;100669.40;1654974;86;20222;-59
2022/06/07 11:44:04;;;;;;;;;;;;;;;29.31;40.94;100667.19;1688670;85;20204;-60
2022/06/07 11:47:17;;;;;;;;;;;;;;;29.23;40.70;100665.28;1656988;84;20226;-58
2022/06/07 11:50:50;;;;;;;;;;;;;;;29.27;40.66;100671.19;1694708;82;20242;-60
2022/06/07 11:54:03;;;;;;;;;;;;;;;29.36;40.60;100659.55;1694739;82;20256;-58
2022/06/07 11:57:12;;;;;;;;;;;;;;;29.43;40.45;100658.63;1699586;82;20281;-57
2022/06/07 12:00:31;;;;;;;;;;;;;;;29.40;40.25;100654.17;1681928;85;20213;-57
2022/06/07 12:03:42;;;;;;;;;;;;;;;29.25;40.03;100648.06;1695615;84;20295;-65
2022/06/07 12:06:48;;;;;;;;;;;;;;;29.08;39.90;100644.80;1656261;84;20226;-59
2022/06/07 12:09:57;;;;;;;;;;;;;;;29.00;39.80;100639.14;1690784;85;20185;-62
2022/06/07 12:13:05;;;;;;;;;;;;;;;28.98;39.78;100633.53;1688605;85;20212;-61
2022/06/07 12:16:12;;;;;;;;;;;;;;;28.89;39.61;100635.28;1722571;82;20614;-62
2022/06/07 12:19:29;;;;;;;;;;;;;;;28.71;39.49;100633.96;1685473;82;20574;-64
2022/06/07 12:22:34;;;;;;;;;;;;;;;28.61;39.53;100626.10;1711798;82;20646;-64
2022/06/07 12:25:38;;;;;;;;;;;;;;;28.55;39.40;100623.89;1707593;82;20228;-62
2022/06/07 12:28:44;;;;;;;;;;;;;;;28.51;39.28;100620.53;1700743;81;20633;-65
2022/06/07 12:31:55;;;;;;;;;;;;;;;28.38;39.12;100621.10;1702681;83;20249;-63
2022/06/07 12:35:23;;;;;;;;;;;;;;;28.29;39.08;100622.24;1709867;82;20238;-65
2022/06/07 12:38:35;;;;;;;;;;;;;;;28.31;39.09;100614.91;1664674;85;20212;-66
2022/06/07 12:41:40;;;;;;;;;;;;;;;28.33;38.99;100614.07;1697833;82;20509;-65
2022/06/07 12:44:47;;;;;;;;;;;;;;;28.31;38.84;100612.09;1679775;85;20866;-66
2022/06/07 12:48:01;;;;;;;;;;;;;;;28.29;38.76;100605.93;1707769;82;20218;-65
2022/06/07 12:51:06;;;;;;;;;;;;;;;28.31;38.74;100605.05;1691059;84;20216;-63
2022/06/07 12:54:22;;;;;;;;;;;;;;;28.34;38.71;100604.48;1677878;85;20230;-66
2022/06/07 12:57:35;;;;;;;;;;;;;;;28.34;38.61;100598.84;1710699;83;20226;-62
2022/06/07 13:00:49;;;;;;;;;;;;;;;28.32;38.48;100597.73;1675051;84;20496;-64
2022/06/07 13:03:54;;;;;;;;;;;;;;;28.31;38.49;100595.20;1682431;83;20719;-67
2022/06/07 13:07:10;;;;;;;;;;;;;;;28.30;38.47;100593.53;1681676;84;20315;-65
2022/06/07 13:10:23;;;;;;;;;;;;;;;28.30;38.39;100587.34;1710801;82;20219;-66
2022/06/07 13:13:39;;;;;;;;;;;;;;;28.31;38.36;100582.52;1710175;84;20226;-63
2022/06/07 13:16:50;;;;;;;;;;;;;;;28.34;38.36;100581.39;1694123;82;20215;-66
2022/06/07 13:19:55;;;;;;;;;;;;;;;28.39;38.33;100574.89;1683065;85;20248;-61
2022/06/07 13:23:02;;;;;;;;;;;;;;;28.43;38.23;100568.98;1683421;84;20208;-64
2022/06/07 13:26:30;;;;;;;;;;;;;;;28.39;38.08;100570.11;1683680;84;20263;-64
2022/06/07 13:29:41;;;;;;;;;;;;;;;28.29;37.96;100573.55;1705468;81;20212;-64
2022/06/07 13:32:47;;;;;;;;;;;;;;;28.17;37.93;100577.23;1686132;85;20221;-64
2022/06/07 13:36:07;;;;;;;;;;;;;;;28.10;37.93;100568.27;1749547;81;20215;-64
2022/06/07 13:39:27;;;;;;;;;;;;;;;28.11;37.86;100565.72;1775997;81;20207;-64
2022/06/07 13:42:33;;;;;;;;;;;;;;;28.08;37.82;100567.70;1695926;83;20220;-65
2022/06/07 13:45:38;;;;;;;;;;;;;;;28.11;37.81;100569.38;1696762;84;20224;-62
2022/06/07 13:56:00;;;;;;;;;;;;;;;28.12;37.65;100563.16;1680707;85;20247;-64
2022/06/07 13:59:06;;;;;;;;;;;;;;;28.14;37.61;100554.73;1683810;84;20600;-64
2022/06/07 14:02:14;;;;;;;;;;;;;;;28.23;37.67;100559.18;1716682;81;20256;-63
2022/06/07 14:05:35;;;;;;;;;;;;;;;28.26;37.59;100554.41;1759980;81;20690;-64
2022/06/07 14:08:40;;;;;;;;;;;;;;;28.26;37.54;100559.45;1697198;82;20204;-63
2022/06/07 14:11:46;;;;;;;;;;;;;;;28.20;37.46;100545.67;1708242;84;20216;-64
2022/06/07 14:14:54;;;;;;;;;;;;;;;28.22;37.44;100552.73;1725011;82;20521;-65
2022/06/07 14:18:02;;;;;;;;;;;;;;;28.24;37.43;100552.44;1738144;82;20214;-64
2022/06/07 14:21:06;;;;;;;;;;;;;;;28.25;37.38;100544.25;1738939;82;20512;-65
2022/06/07 14:24:15;;;;;;;;;;;;;;;28.26;37.44;100545.96;1737485;82;20210;-63
2022/06/07 14:27:22;;;;;;;;;;;;;;;28.30;37.45;100537.20;1736684;82;20485;-66
2022/06/07 14:30:28;;;;;;;;;;;;;;;28.31;37.43;100540.28;1726324;82;20210;-64
2022/06/07 14:33:32;;;;;;;;;;;;;;;28.30;37.29;100542.27;1706742;83;20213;-65
2022/06/07 14:36:39;;;;;;;;;;;;;;;28.28;37.29;100535.23;1726151;82;20285;-66
2022/06/07 14:39:43;;;;;;;;;;;;;;;28.30;37.29;100528.19;1692088;85;20572;-64
2022/06/07 14:42:47;;;;;;;;;;;;;;;28.36;37.26;100519.14;1687054;85;20222;-63
2022/06/07 14:45:59;;;;;;;;;;;;;;;28.39;37.26;100522.78;1728055;82;20193;-63
2022/06/07 14:49:20;;;;;;;;;;;;;;;28.45;37.21;100520.20;1722521;82;20538;-64
2022/06/07 14:52:26;;;;;;;;;;;;;;;28.43;37.08;100514.86;1724411;83;20549;-65
2022/06/07 14:55:31;;;;;;;;;;;;;;;28.62;37.06;100520.73;1725081;82;20281;-66
2022/06/07 14:58:37;;;;;;;;;;;;;;;28.67;36.93;100513.66;1736199;80;20251;-64
2022/06/07 15:01:54;;;;;;;;;;;;;;;28.66;36.88;100507.73;1717933;81;20217;-66
2022/06/07 15:05:05;;;;;;;;;;;;;;;28.65;36.91;100503.23;1753070;82;20541;-64
2022/06/07 15:08:14;;;;;;;;;;;;;;;28.67;36.90;100502.39;1754828;82;20220;-63
2022/06/07 15:11:22;;;;;;;;;;;;;;;28.73;36.92;100501.21;1731997;80;20281;-63
2022/06/07 15:14:29;;;;;;;;;;;;;;;28.77;36.69;100495.25;1724371;81;20606;-62
2022/06/07 15:17:54;;;;;;;;;;;;;;;28.75;36.61;100494.69;1690785;84;20528;-63
2022/06/07 15:21:00;;;;;;;;;;;;;;;28.73;36.61;100499.80;1737490;80;20587;-64
2022/06/07 15:24:04;;;;;;;;;;;;;;;28.72;36.63;100499.51;1704723;82;20214;-65
2022/06/07 15:27:08;;;;;;;;;;;;;;;28.72;36.65;100502.33;1724624;82;20241;-64
2022/06/07 15:30:14;;;;;;;;;;;;;;;28.78;36.61;100496.95;1702927;83;20284;-62
2022/06/07 15:33:21;;;;;;;;;;;;;;;28.92;36.50;100497.97;1700650;83;20215;-63
2022/06/07 15:36:27;;;;;;;;;;;;;;;28.94;36.40;100495.68;1727902;81;20218;-61
2022/06/07 15:39:33;;;;;;;;;;;;;;;28.94;36.51;100495.68;1710375;84;20220;-63
2022/06/07 15:42:48;;;;;;;;;;;;;;;29.13;36.56;100498.09;1709865;84;20556;-65
2022/06/07 15:45:55;;;;;;;;;;;;;;;29.83;36.22;100496.58;1746134;82;20221;-63
2022/06/07 15:49:00;;;;;;;;;;;;;;;30.23;35.82;100496.97;1745370;82;20281;-65
2022/06/07 15:52:05;;;;;;;;;;;;;;;30.28;35.78;100496.91;1710075;84;20482;-63
2022/06/07 15:55:11;;;;;;;;;;;;;;;30.43;35.55;100499.51;1733162;81;20585;-64
2022/06/07 16:01:43;;;;;;;;;;;;;;;30.55;35.35;100506.98;1682005;85;20660;-65
2022/06/07 16:04:50;;;;;;;;;;;;;;;30.68;35.24;100503.97;1724347;80;20200;-65
2022/06/07 16:07:57;;;;;;;;;;;;;;;30.60;35.19;100501.23;1745861;81;20581;-64
2022/06/07 16:11:02;;;;;;;;;;;;;;;30.41;35.13;100502.38;1699165;82;20205;-64
2022/06/07 16:14:07;;;;;;;;;;;;;;;30.06;35.27;100496.60;1724592;82;20214;-63
2022/06/07 16:17:13;;;;;;;;;;;;;;;29.78;35.40;100498.89;1727425;82;20212;-64
2022/06/07 16:20:22;;;;;;;;;;;;;;;29.54;35.50;100502.25;1680567;85;20190;-65
2022/06/07 16:23:28;;;;;;;;;;;;;;;29.33;35.62;100497.94;1732910;81;20486;-64
2022/06/07 16:26:38;;;;;;;;;;;;;;;29.15;35.68;100500.06;1731403;81;20619;-64
2022/06/07 16:33:19;;;;;;;;;;;;;;;29.13;35.49;100503.73;1690954;82;20280;-64
2022/06/07 16:36:33;;;;;;;;;;;;;;;29.02;35.34;100509.15;1690456;85;20240;-65
2022/06/07 16:39:38;;;;;;;;;;;;;;;28.83;35.48;100505.34;1690302;85;20208;-65
2022/06/07 16:42:45;;;;;;;;;;;;;;;28.63;35.55;100506.91;1690183;85;20243;-65
2022/06/07 16:45:50;;;;;;;;;;;;;;;28.48;35.61;100507.83;1690253;85;20556;-65
2022/06/07 16:48:57;;;;;;;;;;;;;;;28.32;35.64;100514.64;1690352;85;20208;-65